Time;durP1;ratioP1;P1;durP2;ratioP2;P2;SDS_P1;SDS_P2;PMS_P1;PMS_P2;Temp;Humidity;BMP_temperature;BMP_pressure;BME280_temperature;BME280_humidity;BME280_pressure;Samples;Min_cycle;Max_cycle;Signal;HPM_P1;HPM_P2
2022/09/02 07:08:11;;;;;;;4.80;1.30;;;;;;;;;;12896380;23;20013;-83
2022/09/02 07:13:13;;;;;;;4.47;1.45;;;;;;;;;;12859480;23;20011;-83
2022/09/02 07:18:14;;;;;;;3.30;1.33;;;;;;;;;;12859508;23;20005;-85
2022/09/02 07:23:15;;;;;;;6.03;1.48;;;;;;;;;;12861875;23;20528;-85
2022/09/02 07:28:26;;;;;;;4.18;1.58;;;;;;;;;;12883337;23;20009;-85
2022/09/02 07:33:30;;;;;;;3.13;1.80;;;;;;;;;;12851425;23;20091;-86
2022/09/02 07:38:31;;;;;;;7.53;2.97;;;;;;;;;;12848419;23;20286;-86
2022/09/02 07:43:33;;;;;;;8.88;5.20;;;;;;;;;;12851578;23;20004;-86
2022/09/02 07:48:38;;;;;;;10.18;5.03;;;;;;;;;;12851120;23;20041;-86
2022/09/02 07:53:47;;;;;;;8.68;5.88;;;;;;;;;;12851719;23;20004;-87
2022/09/02 07:58:49;;;;;;;11.43;6.43;;;;;;;;;;12855048;23;20035;-86
2022/09/02 08:03:53;;;;;;;8.27;4.47;;;;;;;;;;12877846;23;20001;-85
2022/09/02 08:08:55;;;;;;;4.72;3.65;;;;;;;;;;12850813;23;20019;-86
2022/09/02 08:13:56;;;;;;;7.90;4.65;;;;;;;;;;12846852;23;20011;-86
2022/09/02 08:18:57;;;;;;;6.72;3.78;;;;;;;;;;12846226;23;20064;-86
2022/09/02 08:23:59;;;;;;;9.18;3.80;;;;;;;;;;12851165;23;20012;-85
2022/09/02 08:29:00;;;;;;;8.82;3.90;;;;;;;;;;12851181;23;20027;-84
2022/09/02 08:34:01;;;;;;;5.28;3.50;;;;;;;;;;12849878;23;20001;-86
2022/09/02 08:39:04;;;;;;;7.40;3.70;;;;;;;;;;12848051;23;20463;-86
2022/09/02 08:44:19;;;;;;;7.70;3.97;;;;;;;;;;12849844;23;20016;-85
2022/09/02 08:49:25;;;;;;;7.65;4.60;;;;;;;;;;12855939;23;20004;-86
2022/09/02 08:55:01;;;;;;;7.57;3.38;;;;;;;;;;12860058;23;20007;-85
2022/09/02 09:00:01;;;;;;;3.88;2.60;;;;;;;;;;12883275;23;20076;-84
2022/09/02 09:05:18;;;;;;;7.63;2.70;;;;;;;;;;12865906;23;20000;-86
2022/09/02 09:10:35;;;;;;;6.35;2.10;;;;;;;;;;12868394;23;20013;-86
2022/09/02 09:15:55;;;;;;;6.03;2.25;;;;;;;;;;12867958;23;20012;-86
2022/09/02 09:21:29;;;;;;;4.78;2.25;;;;;;;;;;12851820;23;20029;-84
2022/09/02 09:26:36;;;;;;;5.15;2.67;;;;;;;;;;12927714;22;20063;-84
2022/09/02 09:31:37;;;;;;;6.53;2.00;;;;;;;;;;12917008;23;20007;-86
2022/09/02 09:37:03;;;;;;;4.78;1.90;;;;;;;;;;12878129;23;20005;-85
2022/09/02 09:42:11;;;;;;;5.25;1.90;;;;;;;;;;12879158;22;20013;-85
2022/09/02 10:03:53;;;;;;;7.53;2.22;;;;;;;;;;12874951;22;20024;-84
2022/09/02 10:09:04;;;;;;;4.25;2.65;;;;;;;;;;12895471;23;20033;-84
2022/09/02 10:14:09;;;;;;;6.65;2.10;;;;;;;;;;12964031;22;20012;-86
2022/09/02 10:19:10;;;;;;;4.22;1.40;;;;;;;;;;12965914;23;20004;-83
2022/09/02 10:24:30;;;;;;;5.75;2.40;;;;;;;;;;12967961;22;19996;-84
2022/09/02 10:29:44;;;;;;;5.97;3.35;;;;;;;;;;12966892;22;19995;-84
2022/09/02 10:34:55;;;;;;;6.00;2.08;;;;;;;;;;12920289;23;20024;-82
2022/09/02 10:40:12;;;;;;;6.13;2.45;;;;;;;;;;12914040;23;20004;-78
2022/09/02 10:45:13;;;;;;;4.45;1.92;;;;;;;;;;12858622;23;20024;-81
2022/09/02 10:50:40;;;;;;;5.80;3.97;;;;;;;;;;12854529;23;20015;-81
2022/09/02 10:55:57;;;;;;;4.03;2.13;;;;;;;;;;12878528;23;20005;-81
2022/09/02 11:00:58;;;;;;;4.75;1.80;;;;;;;;;;12863077;23;20043;-80
2022/09/02 11:06:13;;;;;;;4.43;2.10;;;;;;;;;;12856976;23;20097;-79
2022/09/02 11:11:20;;;;;;;4.63;3.47;;;;;;;;;;12846383;23;20004;-80
2022/09/02 11:16:21;;;;;;;5.38;2.42;;;;;;;;;;12854070;23;20067;-81
2022/09/02 11:21:25;;;;;;;5.38;3.13;;;;;;;;;;12860725;23;20068;-82
2022/09/02 11:26:29;;;;;;;3.03;2.08;;;;;;;;;;12851416;23;20004;-81
2022/09/02 11:31:49;;;;;;;4.93;2.03;;;;;;;;;;12849633;23;20009;-79
2022/09/02 11:36:50;;;;;;;;;;;;;;;;;;12845535;23;20005;-80
2022/09/02 11:41:54;;;;;;;3.28;1.92;;;;;;;;;;12844102;23;19900;-80
2022/09/02 11:47:01;;;;;;;4.68;2.58;;;;;;;;;;12846042;23;20001;-79
2022/09/02 11:52:09;;;;;;;4.32;2.25;;;;;;;;;;12845880;23;20005;-80
2022/09/02 11:57:14;;;;;;;4.80;1.92;;;;;;;;;;12852070;23;20005;-80
2022/09/02 12:02:36;;;;;;;4.38;2.10;;;;;;;;;;12863627;23;20087;-79
2022/09/02 12:07:48;;;;;;;4.47;1.80;;;;;;;;;;12863639;23;20009;-79
2022/09/02 12:12:49;;;;;;;8.20;1.90;;;;;;;;;;12847577;23;20020;-78
2022/09/02 12:17:50;;;;;;;2.53;1.70;;;;;;;;;;12850465;23;20036;-79
2022/09/02 12:22:51;;;;;;;4.38;1.98;;;;;;;;;;12848052;23;20432;-78
2022/09/02 12:28:14;;;;;;;8.15;2.47;;;;;;;;;;12846509;23;20031;-79
2022/09/02 12:33:28;;;;;;;3.78;1.70;;;;;;;;;;12873387;23;20060;-79
2022/09/02 12:38:30;;;;;;;3.35;1.70;;;;;;;;;;12848169;23;20008;-80
2022/09/02 12:43:36;;;;;;;3.20;1.83;;;;;;;;;;12847961;23;20157;-80
2022/09/02 12:48:39;;;;;;;4.70;1.52;;;;;;;;;;12854062;23;20000;-81
2022/09/02 12:53:46;;;;;;;4.43;1.60;;;;;;;;;;12852478;23;20079;-80
2022/09/02 12:58:48;;;;;;;19.33;17.35;;;;;;;;;;12854978;23;20016;-80
2022/09/02 13:04:05;;;;;;;3.53;1.80;;;;;;;;;;12849061;23;20032;-80
2022/09/02 13:09:35;;;;;;;3.30;1.90;;;;;;;;;;12851633;23;20064;-81
2022/09/02 13:14:55;;;;;;;4.13;1.77;;;;;;;;;;12747045;23;20000;-83
2022/09/02 13:20:18;;;;;;;3.20;1.98;;;;;;;;;;12849500;23;20083;-87
2022/09/02 13:25:32;;;;;;;2.50;1.63;;;;;;;;;;12849754;23;20008;-84
2022/09/02 13:30:52;;;;;;;2.38;1.50;;;;;;;;;;12848810;23;20012;-84
2022/09/02 13:35:54;;;;;;;5.13;1.70;;;;;;;;;;12872686;23;20004;-85
2022/09/02 13:40:56;;;;;;;4.13;1.70;;;;;;;;;;12845031;23;20004;-86
2022/09/02 13:46:01;;;;;;;2.92;1.67;;;;;;;;;;12846624;23;20035;-85
2022/09/02 13:51:12;;;;;;;3.25;1.52;;;;;;;;;;12851182;23;20000;-84
2022/09/02 13:56:14;;;;;;;2.67;1.77;;;;;;;;;;12848552;23;20008;-85
2022/09/02 14:01:29;;;;;;;3.30;1.70;;;;;;;;;;12873383;23;20448;-84
2022/09/02 14:06:35;;;;;;;3.78;2.10;;;;;;;;;;12849010;23;20000;-83
2022/09/02 14:11:38;;;;;;;1.98;1.50;;;;;;;;;;12850961;23;20005;-83
2022/09/02 14:16:39;;;;;;;2.40;1.70;;;;;;;;;;12849560;23;20011;-84
2022/09/02 14:21:45;;;;;;;4.00;1.58;;;;;;;;;;12854186;23;20059;-84
2022/09/02 14:26:51;;;;;;;2.85;1.60;;;;;;;;;;12857519;23;20000;-85
2022/09/02 14:32:12;;;;;;;4.15;2.88;;;;;;;;;;12851320;23;20024;-87
2022/09/02 14:37:41;;;;;;;2.83;1.73;;;;;;;;;;12829859;23;20058;-89
2022/09/02 14:43:14;;;;;;;1.75;1.40;;;;;;;;;;12856466;23;20005;-88
2022/09/02 14:48:36;;;;;;;2.33;1.75;;;;;;;;;;12900871;22;20012;-84
2022/09/02 14:53:54;;;;;;;2.67;1.70;;;;;;;;;;12864004;22;20012;-88
2022/09/02 14:59:30;;;;;;;3.45;1.70;;;;;;;;;;12853401;23;20026;-87
2022/09/02 15:04:38;;;;;;;2.33;1.67;;;;;;;;;;12851767;23;20004;-87
2022/09/02 15:09:51;;;;;;;5.25;1.85;;;;;;;;;;12861388;23;20038;-87
2022/09/02 15:14:53;;;;;;;2.22;1.60;;;;;;;;;;12854073;23;20008;-87
2022/09/02 15:20:00;;;;;;;2.80;1.75;;;;;;;;;;12850903;23;20012;-87
2022/09/02 15:30:44;;;;;;;5.13;2.03;;;;;;;;;;12870122;23;20013;-87
2022/09/02 15:35:57;;;;;;;2.70;2.03;;;;;;;;;;12893339;23;20008;-86
2022/09/02 15:41:09;;;;;;;3.17;1.60;;;;;;;;;;12882067;23;20015;-86
2022/09/02 15:46:16;;;;;;;4.57;1.60;;;;;;;;;;12879014;23;20455;-86
2022/09/02 15:51:38;;;;;;;5.18;1.60;;;;;;;;;;12880545;23;20004;-84
2022/09/02 15:56:42;;;;;;;2.90;1.73;;;;;;;;;;12883666;23;20028;-85
2022/09/02 16:02:10;;;;;;;1.65;1.40;;;;;;;;;;12882466;23;20033;-86
2022/09/02 16:07:31;;;;;;;3.25;2.00;;;;;;;;;;12826345;23;20080;-86
2022/09/02 16:12:38;;;;;;;2.90;1.50;;;;;;;;;;12918083;23;20056;-86
2022/09/02 16:17:40;;;;;;;2.95;1.63;;;;;;;;;;12900261;23;19992;-80
